Monatstabelle

Bitte in den Auwahlmenüs den gewünschte Zeiraum wählen und die Schaltfläche "Anfrage absenden" betätigen. Beginn der Aufzeichnung ist 2007 - Dezember. Vor diesem Zeitraum sind keine Daten verfügbar.

2018 - März

 

Datum Temperatur (°C) Luftdruck (hPa) Luftfeuchte (%) Regen
(l/m²)
Wind (km/h)
avg: min: max: avg: min: max: avg: min: max: avg: max:
01.03.2018 -6,8 -17,5 -3,5 1008,9 1005,4 1018,1 73 58 85 0,0 9,8 22,2
02.03.2018 -5,7 -7,7 -4,1 998,4 995,9 1005,4 84 76 87 0,0 10,3 15,9
03.03.2018 -2,5 -5,3 1,6 1000,5 997,9 1002,4 75 60 86 0,0 1,9 14,6
04.03.2018 -0,2 -5,0 4,0 1003,7 1001,9 1006,4 72 61 79 0,1 10,3 20,1
05.03.2018 0,4 -0,5 4,4 1000,1 997,3 1002,8 81 74 85 0,7 10,7 23,3
06.03.2018 0,8 -1,5 6,1 993,2 991,4 997,1 82 69 88 4,7 3,6 16,9
07.03.2018 3,7 -1,3 11,1 999,0 993,5 1002,1 81 64 90 1,6 2,2 9,0
08.03.2018 6,4 1,6 12,1 1007,3 1002,1 1008,9 71 44 90 0,5 2,4 18,7
09.03.2018 6,2 1,1 14,3 1009,8 1006,9 1011,2 68 40 82 0,0 1,7 7,9
10.03.2018 9,1 2,5 17,5 1007,6 1006,4 1009,2 72 48 82 0,0 0,2 7,1
11.03.2018 10,6 1,7 17,4 1001,7 998,8 1007,8 72 50 89 0,0 10,9 23,3
12.03.2018 10,3 7,3 19,9 998,2 994,1 1001,1 78 44 88 4,3 4,5 17,7
13.03.2018 8,6 3,1 15,9 1005,5 1001,1 1007,1 70 44 90 0,1 3,1 15,6
14.03.2018 7,1 3,2 11,7 1009,3 1007,0 1010,6 71 54 82 0,0 6,2 21,1
15.03.2018 8,3 2,8 12,6 1003,1 1000,8 1009,0 76 61 86 0,0 9,8 16,6
16.03.2018 7,2 4,3 10,1 1001,1 999,8 1002,1 85 71 89 6,3 3,8 18,5
17.03.2018 -0,3 -3,1 4,9 1001,2 999,4 1002,9 90 88 90 0,1 8,1 12,9
18.03.2018 -3,2 -5,4 -0,1 1005,4 1002,1 1006,9 79 69 89 0,0 7,5 14,2
19.03.2018 -4,1 -5,9 -1,3 1006,9 1006,1 1008,1 79 66 83 0,0 10,3 14,5
20.03.2018 -2,0 -4,7 2,7 1011,9 1005,6 1016,1 71 58 85 1,9 8,9 24,8
21.03.2018 -2,3 -5,9 3,1 1021,2 1016,1 1022,8 74 56 82 0,4 3,6 17,2
22.03.2018 -1,1 -8,6 8,3 1013,8 1009,8 1022,4 69 41 87 3,4 1,1 9,5
23.03.2018 3,5 -3,7 6,1 1004,1 1002,9 1009,8 76 67 85 0,8 5,7 19,5
24.03.2018 4,2 1,6 10,5 1005,3 1002,8 1006,6 69 46 84 0,0 9,3 15,9
25.03.2018 2,9 0,6 7,7 1008,8 1005,9 1009,9 72 56 81 0,0 11,3 20,3
26.03.2018 4,3 -3,7 10,1 1010,2 1008,1 1012,0 71 56 89 0,1 2,6 12,7
27.03.2018 4,8 0,5 9,7 1012,1 1011,4 1012,8 80 60 86 0,4 2,9 14,0
28.03.2018 6,4 -1,9 10,9 1006,6 1002,9 1011,4 79 68 90 0,7 3,2 11,3
29.03.2018 7,4 5,3 10,0 1007,3 1001,7 1009,8 87 72 89 9,3 0,7 11,7
30.03.2018 9,0 2,9 12,1 1006,1 1002,3 1010,2 79 71 90 0,3 9,9 18,8
31.03.2018 10,2 6,3 14,5 996,1 994,1 1002,3 79 67 87 8,9 5,8 19,5
avg. 3,3 1005,3 76   ---
  Summe Regen: 44,8  
 
Min-Datum 01.03.2018 06.03.2018 09.03.2018 --- ---
Min-Zeit 02:48 15:20 15:30 --- ---
Minimum -17,5 991,4 40 --- ---
 

Max-Datum

12.03.2018 21.03.2018 07.03.2018 29.03.2018 20.03.2018
Max-Zeit 11:54 22:42 04:40 10:22 07:10
Maximum 19,9 1022,8 90 9,3 24,8
 

 

  Letztes Jahr
gleiches Monat
Eistage max < 0°C 4 0
Frosttage min < 0°C 16 5
Sommertage max >=25°C 0 0
Heiße Tage max >=30°C 0 0

 

<<< nach oben >>>